Forside
METAR-TAF:

METAR-TAF

Lufthavne :

Dar es-Salaam, Tanzania

Breddekreds: 06-52S, længdekreds: 039-12E, højde: 55 m

Aktuelle vejr

Denne rapport blev lavet for 48 minutter siden, kl. 02:00 UTC
Vind 4 kt fra sydsydvest
Temperatur 20°C
Fugtighed 94%
Tryk 1018 hPa
Sigt 10 km eller mere
Spredte skyer i en højde af 1400 ft

METAR: HTDA 160200Z 21004KT 9999 SCT014 20/19 Q1018 NOSIG

Tid: 05:48 (02:48 UTC)

Vejrudsigter

Denne rapport blev lavet for 3 timer og 48 minutter siden, kl. 23:00 UTC
Foreløbig gælder fra 16 på 00 UTC til 17 på 06 UTC
Vind kt fra nord
Sigt 10 km eller mere
Nogle få skyer i en højde af 1400 ft
ændring
fra 16 på 06 UTC til 16 på 09 UTC
Vind 10 kt fra øst
Brudte skyer i en højde af 1800 ft
ændring
fra 16 på 13 UTC til 16 på 16 UTC
Spredte skyer i en højde af 2800 ft

TAF: HTDA 152300Z 1600/1706 00000KT 9999 FEW014 BECMG 1606/1609 10010KT BKN018 BECMG 1613/1616 SCT028

Vejrobservationer og prognoser fra mere end 4000 lufthavne (METAR og TAF).

De gule og røde prikker repræsenterer de meteorologiske stationer.

Flyt musen over at se navnet på stationen.

Så klik over at se vejr observationer og prognoser.

At skifte det kort: Klik på de grønne knapper med et sort kors for at zoome ind; på den grønne knap med en bindestreg for at zoome ud; eller på de grønne pile for tilstødende kort.


METAR-TAF: